createdAt,value
2022-10-23T00:04:22.413Z,11.54
2022-10-23T00:09:43.268Z,11.47
2022-10-23T00:15:04.413Z,11.31
2022-10-23T00:20:25.616Z,11.23
2022-10-23T00:25:46.399Z,11.32
2022-10-23T00:31:07.242Z,11.19
2022-10-23T00:36:28.204Z,11.10
2022-10-23T00:41:49.125Z,11.09
2022-10-23T00:47:10.749Z,11.03
2022-10-23T00:52:33.636Z,11.04
2022-10-23T00:57:54.464Z,10.91
2022-10-23T01:03:17.165Z,11.03
2022-10-23T01:08:47.613Z,10.96
2022-10-23T01:14:26.789Z,10.87
2022-10-23T01:19:56.568Z,10.87
2022-10-23T01:25:46.243Z,10.75
2022-10-23T01:31:14.270Z,10.70
2022-10-23T01:36:39.685Z,10.63
2022-10-23T01:42:10.579Z,10.59
2022-10-23T01:47:36.018Z,10.54
2022-10-23T01:52:59.910Z,10.55
2022-10-23T01:58:21.994Z,10.55
2022-10-23T02:03:44.666Z,10.54
2022-10-23T02:09:06.348Z,10.45
2022-10-23T02:14:37.494Z,10.35
2022-10-23T02:20:07.802Z,10.36
2022-10-23T02:25:36.506Z,10.30
2022-10-23T02:31:00.391Z,10.29
2022-10-23T02:36:21.555Z,10.33
2022-10-23T02:41:50.049Z,10.26
2022-10-23T02:47:27.627Z,10.34
2022-10-23T02:52:52.333Z,10.45
2022-10-23T02:58:19.319Z,10.44
2022-10-23T03:04:01.072Z,10.54
2022-10-23T03:09:22.031Z,10.39
2022-10-23T03:14:43.608Z,10.42
2022-10-23T03:20:06.613Z,10.31
2022-10-23T03:25:27.677Z,10.16
2022-10-23T03:30:50.937Z,10.09
2022-10-23T03:36:11.995Z,10.09
2022-10-23T03:41:33.880Z,10.18
2022-10-23T03:46:54.477Z,10.11
2022-10-23T03:52:15.186Z,10.05
2022-10-23T03:57:36.343Z,9.96
2022-10-23T04:02:57.513Z,10.02
2022-10-23T04:08:20.191Z,10.06
2022-10-23T04:13:43.566Z,10.03
2022-10-23T04:19:04.397Z,10.07
2022-10-23T04:24:26.082Z,10.05
2022-10-23T04:29:46.685Z,10.13
2022-10-23T04:35:07.893Z,10.12
2022-10-23T04:40:28.595Z,10.04
2022-10-23T04:45:50.258Z,9.97
2022-10-23T04:51:11.344Z,9.89
2022-10-23T04:56:48.569Z,9.81
2022-10-23T05:02:14.645Z,9.73
2022-10-23T05:07:36.449Z,9.66
2022-10-23T05:13:23.910Z,9.64
2022-10-23T05:18:47.630Z,9.68
2022-10-23T05:24:08.695Z,9.68
2022-10-23T05:29:29.942Z,9.65
2022-10-23T05:34:50.779Z,9.60
2022-10-23T05:40:12.343Z,9.58
2022-10-23T05:45:36.993Z,9.49
2022-10-23T05:51:20.294Z,9.55
2022-10-23T05:56:55.880Z,9.65
2022-10-23T06:02:25.015Z,9.55
2022-10-23T06:07:51.028Z,9.55
2022-10-23T06:13:12.629Z,9.59
2022-10-23T06:18:34.091Z,9.67
2022-10-23T06:24:00.353Z,9.76
2022-10-23T06:29:30.218Z,9.72
2022-10-23T06:34:51.115Z,9.53
2022-10-23T06:40:11.961Z,9.61
2022-10-23T06:45:52.983Z,9.68
2022-10-23T06:51:36.382Z,9.76
2022-10-23T06:56:58.624Z,9.77
2022-10-23T07:02:29.275Z,9.76
2022-10-23T07:07:52.220Z,9.97
2022-10-23T07:13:18.771Z,9.96
2022-10-23T07:19:01.237Z,9.98
2022-10-23T07:24:22.185Z,10.11
2022-10-23T07:29:43.297Z,10.27
2022-10-23T07:35:04.968Z,10.57
2022-10-23T07:40:28.008Z,10.58
2022-10-23T07:45:50.464Z,10.64
2022-10-23T07:51:17.718Z,10.79
2022-10-23T07:56:41.506Z,10.95
2022-10-23T08:02:14.261Z,11.18
2022-10-23T08:07:36.484Z,11.37
2022-10-23T08:12:57.017Z,11.50
2022-10-23T08:18:35.287Z,11.54
2022-10-23T08:23:57.598Z,11.57
2022-10-23T08:29:18.943Z,11.57
2022-10-23T08:34:40.031Z,11.66
2022-10-23T08:40:00.553Z,11.79
2022-10-23T08:45:51.162Z,12.04
2022-10-23T08:51:41.847Z,12.31
2022-10-23T08:57:11.472Z,12.44
2022-10-23T09:02:43.647Z,12.54
2022-10-23T09:08:16.724Z,12.78
2022-10-23T09:13:48.620Z,13.08
2022-10-23T09:19:16.421Z,13.29
2022-10-23T09:24:37.136Z,13.48
2022-10-23T09:29:59.416Z,13.70
2022-10-23T09:35:25.681Z,13.96
2022-10-23T09:40:47.002Z,14.13
2022-10-23T09:46:08.013Z,14.25
2022-10-23T09:51:30.543Z,14.38
2022-10-23T09:56:55.158Z,14.54
2022-10-23T10:02:27.367Z,14.71
2022-10-23T10:08:20.700Z,14.75
2022-10-23T10:14:03.629Z,15.00
2022-10-23T10:19:39.240Z,15.22
2022-10-23T10:25:15.176Z,15.45
2022-10-23T10:30:52.460Z,15.57
2022-10-23T10:36:13.125Z,15.64
2022-10-23T10:41:42.877Z,15.78
2022-10-23T10:47:21.186Z,15.91
2022-10-23T10:53:07.933Z,15.92
2022-10-23T10:58:53.973Z,15.96
2022-10-23T11:04:40.966Z,16.13
2022-10-23T11:10:13.336Z,16.24
2022-10-23T11:15:40.869Z,16.41
2022-10-23T11:21:11.688Z,16.57
2022-10-23T11:26:46.993Z,16.54
2022-10-23T11:32:40.388Z,16.66
2022-10-23T11:38:25.729Z,16.85
2022-10-23T11:43:53.301Z,16.92
2022-10-23T11:49:21.277Z,16.91
2022-10-23T11:54:42.115Z,16.94
2022-10-23T12:00:02.774Z,16.88
2022-10-23T12:05:41.724Z,16.80
2022-10-23T12:11:02.946Z,16.73
2022-10-23T12:16:34.881Z,16.65
2022-10-23T12:21:59.364Z,16.60
2022-10-23T12:27:32.975Z,16.65
2022-10-23T12:33:15.702Z,16.85
2022-10-23T12:38:44.934Z,17.01
2022-10-23T12:44:11.877Z,17.05
2022-10-23T12:49:34.283Z,17.08
2022-10-23T12:54:55.141Z,17.18
2022-10-23T13:00:22.911Z,17.20
2022-10-23T13:05:44.287Z,17.29
2022-10-23T13:11:06.400Z,17.46
2022-10-23T13:16:31.461Z,17.48
2022-10-23T13:21:52.271Z,17.55
2022-10-23T13:27:45.728Z,17.60
2022-10-23T13:33:37.687Z,17.54
2022-10-23T13:39:10.532Z,17.60
2022-10-23T13:44:31.910Z,17.58
2022-10-23T13:49:52.638Z,17.50
2022-10-23T13:55:23.722Z,17.43
2022-10-23T14:00:46.122Z,17.43
2022-10-23T14:06:07.164Z,17.42
2022-10-23T14:11:27.954Z,17.36
2022-10-23T14:16:48.683Z,17.32
2022-10-23T14:22:09.374Z,17.31
2022-10-23T14:27:30.635Z,17.28
2022-10-23T14:32:52.344Z,17.24
2022-10-23T14:38:13.213Z,17.25
2022-10-23T14:43:33.713Z,17.23
2022-10-23T14:48:57.492Z,17.17
2022-10-23T14:54:20.791Z,17.16
2022-10-23T14:59:41.325Z,17.21
2022-10-23T15:05:02.005Z,17.17
2022-10-23T15:10:22.859Z,17.08
2022-10-23T15:15:44.266Z,16.94
2022-10-23T15:21:06.475Z,16.77
2022-10-23T15:26:27.275Z,16.67
2022-10-23T15:31:57.313Z,16.50
2022-10-23T15:37:18.427Z,16.43
2022-10-23T15:42:39.041Z,16.26
2022-10-23T15:47:59.711Z,16.21
2022-10-23T15:53:20.319Z,16.07
2022-10-23T15:58:40.849Z,15.78
2022-10-23T16:04:02.319Z,15.57
2022-10-23T16:09:23.222Z,15.43
2022-10-23T16:14:44.544Z,15.31
2022-10-23T16:20:05.693Z,15.34
2022-10-23T16:25:26.986Z,15.38
2022-10-23T16:30:47.661Z,15.29
2022-10-23T16:36:09.701Z,15.22
2022-10-23T16:41:49.389Z,15.09
2022-10-23T16:47:13.276Z,15.00
2022-10-23T16:52:34.724Z,14.94
2022-10-23T16:57:56.939Z,14.97
2022-10-23T17:03:17.868Z,15.06
2022-10-23T17:08:39.328Z,15.08
2022-10-23T17:14:03.929Z,15.00
2022-10-23T17:19:44.737Z,14.76
2022-10-23T17:25:07.474Z,14.76
2022-10-23T17:30:28.403Z,14.74
2022-10-23T17:35:50.899Z,14.68
2022-10-23T17:41:14.000Z,14.56
2022-10-23T17:46:34.566Z,14.53
2022-10-23T17:51:57.156Z,14.88
2022-10-23T17:57:18.114Z,15.12
2022-10-23T18:02:38.774Z,15.02
2022-10-23T18:07:59.663Z,14.86
2022-10-23T18:13:21.666Z,14.69
2022-10-23T18:18:44.447Z,14.51
2022-10-23T18:24:05.987Z,14.49
2022-10-23T18:29:26.976Z,14.31
2022-10-23T18:34:47.621Z,14.13
2022-10-23T18:40:08.969Z,13.93
2022-10-23T18:45:29.908Z,13.79
2022-10-23T18:50:52.010Z,13.81
2022-10-23T18:56:21.741Z,13.90
2022-10-23T19:01:43.237Z,13.90
2022-10-23T19:07:04.327Z,13.85
2022-10-23T19:12:25.073Z,13.75
2022-10-23T19:17:46.081Z,13.52
2022-10-23T19:23:07.103Z,13.42
2022-10-23T19:28:28.283Z,13.32
2022-10-23T19:33:50.430Z,13.27
2022-10-23T19:39:11.082Z,13.32
2022-10-23T19:44:31.810Z,13.22
2022-10-23T19:49:52.539Z,13.32
2022-10-23T19:55:13.215Z,13.24
2022-10-23T20:00:33.888Z,13.05
2022-10-23T20:05:54.409Z,12.98
2022-10-23T20:11:24.895Z,13.00
2022-10-23T20:16:50.058Z,12.98
2022-10-23T20:22:12.988Z,12.91
2022-10-23T20:27:33.639Z,12.85
2022-10-23T20:32:54.441Z,12.81
2022-10-23T20:38:15.123Z,12.81
2022-10-23T20:43:35.810Z,12.76
2022-10-23T20:48:56.449Z,12.75
2022-10-23T20:54:17.219Z,12.73
2022-10-23T20:59:37.906Z,12.74
2022-10-23T21:04:58.903Z,12.72
2022-10-23T21:10:19.928Z,12.72
2022-10-23T21:15:40.598Z,12.69
2022-10-23T21:21:01.333Z,12.67
2022-10-23T21:26:23.295Z,12.66
2022-10-23T21:31:44.142Z,12.70
2022-10-23T21:37:12.873Z,12.78
2022-10-23T21:42:34.580Z,12.75
2022-10-23T21:48:01.513Z,12.70
2022-10-23T21:53:22.417Z,12.58
2022-10-23T21:58:42.922Z,12.44
2022-10-23T22:04:03.631Z,12.45
2022-10-23T22:09:24.343Z,12.43
2022-10-23T22:14:45.216Z,12.33
2022-10-23T22:20:06.407Z,12.30
2022-10-23T22:25:26.942Z,12.53
2022-10-23T22:30:47.747Z,12.68
2022-10-23T22:36:08.784Z,12.77
2022-10-23T22:41:29.432Z,12.71
2022-10-23T22:46:50.047Z,12.61
2022-10-23T22:52:10.794Z,12.69
2022-10-23T22:57:31.342Z,12.69
2022-10-23T23:02:51.990Z,12.77
2022-10-23T23:08:13.795Z,12.89
2022-10-23T23:13:35.062Z,12.99
2022-10-23T23:18:59.381Z,12.92
2022-10-23T23:24:20.146Z,12.90
2022-10-23T23:29:40.739Z,12.82
2022-10-23T23:35:02.132Z,12.75
2022-10-23T23:40:22.846Z,12.67
2022-10-23T23:45:43.405Z,12.75
2022-10-23T23:51:05.109Z,12.74
2022-10-23T23:56:25.740Z,12.84
